createdAt,value
2018-05-02T00:00:28.130Z,95172.22
2018-05-02T00:02:55.638Z,95185.34
2018-05-02T00:05:23.148Z,95182.61
2018-05-02T00:07:50.692Z,95189.41
2018-05-02T00:10:18.335Z,95185.02
2018-05-02T00:12:45.851Z,95182.30
2018-05-02T00:15:13.399Z,95171.33
2018-05-02T00:17:40.921Z,95180.88
2018-05-02T00:20:08.443Z,95186.67
2018-05-02T00:22:35.943Z,95186.84
2018-05-02T00:25:03.475Z,95181.38
2018-05-02T00:27:30.973Z,95184.83
2018-05-02T00:29:58.515Z,95184.37
2018-05-02T00:32:26.022Z,95186.51
2018-05-02T00:34:53.530Z,95180.70
2018-05-02T00:37:21.036Z,95178.75
2018-05-02T00:39:48.537Z,95181.30
2018-05-02T00:42:16.044Z,95183.00
2018-05-02T00:44:43.565Z,95182.59
2018-05-02T00:47:11.069Z,95181.03
2018-05-02T00:49:38.575Z,95176.44
2018-05-02T00:52:06.069Z,95179.95
2018-05-02T00:54:33.608Z,95183.36
2018-05-02T00:57:01.112Z,95184.28
2018-05-02T00:59:28.624Z,95178.03
2018-05-02T01:01:56.126Z,95175.45
2018-05-02T01:04:23.623Z,95179.84
2018-05-02T01:06:51.126Z,95181.11
2018-05-02T01:09:18.622Z,95181.11
2018-05-02T01:11:46.123Z,95181.51
2018-05-02T01:14:13.624Z,95185.46
2018-05-02T01:16:41.122Z,95172.39
2018-05-02T01:19:08.623Z,95185.98
2018-05-02T01:21:36.122Z,95182.09
2018-05-02T01:24:03.622Z,95183.61
2018-05-02T01:26:31.119Z,95182.99
2018-05-02T01:28:58.635Z,95185.44
2018-05-02T01:31:26.175Z,95180.70
2018-05-02T01:33:53.716Z,95181.43
2018-05-02T01:36:21.216Z,95182.14
2018-05-02T01:38:48.716Z,95183.63
2018-05-02T01:41:16.212Z,95176.72
2018-05-02T01:43:43.717Z,95181.20
2018-05-02T01:46:11.224Z,95186.41
2018-05-02T01:48:38.735Z,95182.41
2018-05-02T01:51:06.279Z,95180.88
2018-05-02T01:53:33.784Z,95187.12
2018-05-02T01:56:01.293Z,95186.92
2018-05-02T01:58:28.841Z,95184.64
2018-05-02T02:00:56.347Z,95143.97
2018-05-02T02:03:23.838Z,95173.37
2018-05-02T02:05:51.412Z,95181.44
2018-05-02T02:08:18.950Z,95177.67
2018-05-02T02:10:46.450Z,95176.68
2018-05-02T02:13:13.947Z,95175.14
2018-05-02T02:15:41.446Z,95177.53
2018-05-02T02:18:08.940Z,95179.41
2018-05-02T02:20:36.468Z,95185.27
2018-05-02T02:23:04.000Z,95180.39
2018-05-02T02:25:31.499Z,95178.61
2018-05-02T02:27:58.995Z,95183.55
2018-05-02T02:30:26.531Z,95185.52
2018-05-02T02:32:54.046Z,95185.91
2018-05-02T02:35:21.547Z,95174.94
2018-05-02T02:37:49.064Z,95189.53
2018-05-02T02:40:16.618Z,95189.34
2018-05-02T02:42:44.123Z,95187.73
2018-05-02T02:45:11.630Z,95189.58
2018-05-02T02:47:39.136Z,95198.70
2018-05-02T02:50:06.645Z,95197.45
2018-05-02T02:52:34.148Z,95201.99
2018-05-02T02:55:01.660Z,95205.77
2018-05-02T02:57:29.165Z,95207.64
2018-05-02T02:59:56.715Z,95208.83
2018-05-02T03:02:24.254Z,95206.31
2018-05-02T03:04:51.747Z,95194.34
2018-05-02T03:07:19.299Z,95204.95
2018-05-02T03:09:46.824Z,95204.45
2018-05-02T03:12:14.381Z,95217.07
2018-05-02T03:14:41.891Z,95214.58
2018-05-02T03:17:09.392Z,95231.77
2018-05-02T03:19:36.895Z,95210.28
2018-05-02T03:22:04.398Z,95222.87
2018-05-02T03:24:31.909Z,95225.45
2018-05-02T03:26:59.457Z,95235.08
2018-05-02T03:29:26.940Z,95227.27
2018-05-02T03:31:54.454Z,95225.77
2018-05-02T03:34:21.964Z,95230.06
2018-05-02T03:36:49.471Z,95229.08
2018-05-02T03:39:16.983Z,95236.22
2018-05-02T03:41:44.491Z,95229.52
2018-05-02T03:44:11.990Z,95233.02
2018-05-02T03:46:39.501Z,95239.65
2018-05-02T03:49:07.007Z,95239.03
2018-05-02T03:51:34.542Z,95234.98
2018-05-02T03:54:02.056Z,95237.34
2018-05-02T03:56:29.561Z,95233.41
2018-05-02T03:58:57.094Z,95237.37
2018-05-02T04:01:36.340Z,95238.89
2018-05-02T04:04:15.543Z,95242.58
2018-05-02T04:06:54.931Z,95242.91
2018-05-02T04:09:23.273Z,95248.62
2018-05-02T04:11:50.781Z,95233.39
2018-05-02T04:14:18.323Z,95241.45
2018-05-02T04:16:45.892Z,95248.64
2018-05-02T04:19:13.400Z,95248.55
2018-05-02T04:21:40.902Z,95248.55
2018-05-02T04:24:08.398Z,95252.87
2018-05-02T04:26:35.902Z,95245.41
2018-05-02T04:29:03.450Z,95255.11
2018-05-02T04:31:30.956Z,95254.89
2018-05-02T04:33:58.460Z,95260.52
2018-05-02T04:36:26.008Z,95261.13
2018-05-02T04:38:53.517Z,95277.93
2018-05-02T04:41:21.025Z,95267.78
2018-05-02T04:43:48.531Z,95261.20
2018-05-02T04:46:16.056Z,95259.97
2018-05-02T04:48:43.598Z,95264.52
2018-05-02T04:51:11.115Z,95256.03
2018-05-02T04:53:38.631Z,95254.94
2018-05-02T04:56:06.151Z,95256.70
2018-05-02T04:58:33.708Z,95254.22
2018-05-02T05:01:01.259Z,95250.69
2018-05-02T05:03:28.770Z,95249.54
2018-05-02T05:05:57.120Z,95247.80
2018-05-02T05:08:24.629Z,95247.13
2018-05-02T05:10:52.131Z,95249.95
2018-05-02T05:13:19.635Z,95250.07
2018-05-02T05:15:47.148Z,95252.28
2018-05-02T05:18:14.645Z,95255.08
2018-05-02T05:20:42.156Z,95255.73
2018-05-02T05:23:09.674Z,95253.41
2018-05-02T05:25:37.179Z,95248.62
2018-05-02T05:28:04.687Z,95259.42
2018-05-02T05:30:32.207Z,95241.89
2018-05-02T05:32:59.740Z,95251.39
2018-05-02T05:35:27.250Z,95253.51
2018-05-02T05:37:54.823Z,95251.36
2018-05-02T05:40:22.324Z,95257.77
2018-05-02T05:42:49.829Z,95261.16
2018-05-02T05:45:17.393Z,95258.41
2018-05-02T05:47:44.918Z,95253.21
2018-05-02T05:50:12.415Z,95252.09
2018-05-02T05:52:39.936Z,95253.09
2018-05-02T05:55:07.442Z,95257.48
2018-05-02T05:57:34.978Z,95248.79
2018-05-02T06:00:02.508Z,95257.53
2018-05-02T06:02:30.012Z,95260.50
2018-05-02T06:04:57.556Z,95248.56
2018-05-02T06:07:25.055Z,95257.43
2018-05-02T06:09:52.547Z,95266.70
2018-05-02T06:12:20.088Z,95255.95
2018-05-02T06:14:47.613Z,95249.89
2018-05-02T06:17:15.144Z,95254.89
2018-05-02T06:19:42.650Z,95251.16
2018-05-02T06:22:10.229Z,95251.92
2018-05-02T06:24:37.736Z,95255.87
2018-05-02T06:27:05.271Z,95251.05
2018-05-02T06:29:32.848Z,95243.27
2018-05-02T06:32:00.521Z,95240.67
2018-05-02T06:34:27.910Z,95241.06
2018-05-02T06:36:55.540Z,95237.61
2018-05-02T06:39:23.089Z,95273.34
2018-05-02T06:41:50.597Z,95239.34
2018-05-02T06:44:18.160Z,95239.70
2018-05-02T06:46:45.683Z,95247.69
2018-05-02T06:49:13.257Z,95243.09
2018-05-02T06:51:40.716Z,95249.73
2018-05-02T06:54:08.225Z,95246.91
2018-05-02T06:56:35.740Z,95244.52
2018-05-02T06:59:03.248Z,95244.13
2018-05-02T07:01:30.781Z,95237.45
2018-05-02T07:03:58.310Z,95240.69
2018-05-02T07:06:25.863Z,95241.00
2018-05-02T07:08:53.380Z,95240.67
2018-05-02T07:11:20.913Z,95234.00
2018-05-02T07:13:48.419Z,95227.31
2018-05-02T07:16:15.918Z,95235.87
2018-05-02T07:18:43.433Z,95230.77
2018-05-02T07:21:10.941Z,95235.02
2018-05-02T07:23:38.447Z,95242.84
2018-05-02T07:26:05.975Z,95242.26
2018-05-02T07:28:33.476Z,95228.05
2018-05-02T07:31:01.002Z,95231.50
2018-05-02T07:33:28.503Z,95178.89
2018-05-02T07:35:56.007Z,95225.78
2018-05-02T07:38:23.506Z,95215.50
2018-05-02T07:40:51.003Z,95219.30
2018-05-02T07:43:18.512Z,95211.67
2018-05-02T07:45:46.047Z,95216.20
2018-05-02T07:48:13.559Z,95215.41
2018-05-02T07:50:41.075Z,95207.75
2018-05-02T07:53:08.615Z,95214.27
2018-05-02T07:55:36.119Z,95204.42
2018-05-02T07:58:03.656Z,95192.20
2018-05-02T08:00:31.169Z,95205.44
2018-05-02T08:02:58.695Z,95200.26
2018-05-02T08:05:26.207Z,95206.27
2018-05-02T08:07:53.716Z,95189.75
2018-05-02T08:10:21.225Z,95192.42
2018-05-02T08:12:48.737Z,95186.84
2018-05-02T08:15:16.252Z,95183.90
2018-05-02T08:17:43.755Z,95183.47
2018-05-02T08:20:11.271Z,95176.59
2018-05-02T08:22:38.829Z,95175.59
2018-05-02T08:25:06.360Z,95182.14
2018-05-02T08:27:34.077Z,95185.48
2018-05-02T08:30:01.574Z,95170.92
2018-05-02T08:32:29.119Z,95171.04
2018-05-02T08:34:57.606Z,95166.03
2018-05-02T08:37:25.232Z,95164.98
2018-05-02T08:39:53.052Z,95154.61
2018-05-02T08:42:20.600Z,95161.37
2018-05-02T08:44:48.107Z,95153.92
2018-05-02T08:47:15.651Z,95156.02
2018-05-02T08:49:43.206Z,95153.14
2018-05-02T08:52:10.719Z,95154.97
2018-05-02T08:54:38.229Z,95150.24
2018-05-02T08:57:05.742Z,95153.16
2018-05-02T08:59:33.261Z,95152.63
2018-05-02T09:02:01.227Z,95149.61
2018-05-02T09:04:28.732Z,95148.53
2018-05-02T09:06:56.383Z,95149.64
2018-05-02T09:09:24.303Z,95158.17
2018-05-02T09:11:51.802Z,95158.89
2018-05-02T09:14:19.349Z,95146.98
2018-05-02T09:16:46.848Z,95150.56
2018-05-02T09:19:14.354Z,95148.94
2018-05-02T09:21:41.853Z,95151.98
2018-05-02T09:24:09.362Z,95136.46
2018-05-02T09:26:36.877Z,95135.50
2018-05-02T09:29:04.387Z,95133.63
2018-05-02T09:31:31.944Z,95134.13
2018-05-02T09:33:59.516Z,95117.17
2018-05-02T09:36:27.024Z,95124.67
2018-05-02T09:38:54.580Z,95117.53
2018-05-02T09:41:22.093Z,95115.34
2018-05-02T09:43:49.596Z,95117.98
2018-05-02T09:46:17.448Z,95124.34
2018-05-02T09:48:45.002Z,95121.02
2018-05-02T09:51:12.504Z,95116.14
2018-05-02T09:53:40.069Z,95114.71
2018-05-02T09:56:07.571Z,95053.98
2018-05-02T09:58:35.092Z,95101.27
2018-05-02T10:01:02.642Z,95100.95
2018-05-02T10:03:30.170Z,95100.80
2018-05-02T10:05:57.717Z,95091.02
2018-05-02T10:08:25.215Z,95092.04
2018-05-02T10:10:53.012Z,95094.17
2018-05-02T10:13:20.608Z,95088.67
2018-05-02T10:15:48.127Z,95089.62
2018-05-02T10:18:15.631Z,95080.67
2018-05-02T10:20:43.161Z,95082.22
2018-05-02T10:23:10.709Z,95078.38
2018-05-02T10:25:38.255Z,95078.08
2018-05-02T10:28:05.791Z,95066.45
2018-05-02T10:30:33.396Z,95079.22
2018-05-02T10:33:00.942Z,95065.76
2018-05-02T10:35:28.486Z,95071.11
2018-05-02T10:37:56.037Z,95071.11
2018-05-02T10:40:23.622Z,95064.09
2018-05-02T10:42:51.187Z,95069.91
2018-05-02T10:45:18.691Z,95064.03
2018-05-02T10:47:47.283Z,95062.22
2018-05-02T10:50:14.800Z,95063.00
2018-05-02T10:52:42.343Z,95062.44
2018-05-02T10:55:09.857Z,95052.52
2018-05-02T10:57:38.734Z,95059.92
2018-05-02T11:00:06.294Z,95065.51
2018-05-02T11:02:33.791Z,95051.17
2018-05-02T11:05:01.307Z,95048.00
2018-05-02T11:07:28.824Z,95050.04
2018-05-02T11:09:56.382Z,95052.47
2018-05-02T11:12:23.952Z,95050.80
2018-05-02T11:14:51.477Z,95042.39
2018-05-02T11:17:19.053Z,95041.81
2018-05-02T11:19:46.555Z,95030.94
2018-05-02T11:22:14.114Z,95031.49
2018-05-02T11:24:41.631Z,95024.45
2018-05-02T11:27:09.171Z,95022.59
2018-05-02T11:29:36.682Z,95021.27
2018-05-02T11:32:04.186Z,95033.09
2018-05-02T11:34:31.700Z,95027.09
2018-05-02T11:36:59.225Z,95028.02
2018-05-02T11:39:26.746Z,95009.74
2018-05-02T11:41:54.303Z,95003.00
2018-05-02T11:44:21.812Z,95008.52
2018-05-02T11:46:49.332Z,94995.89
2018-05-02T11:49:16.835Z,94998.75
2018-05-02T11:51:44.343Z,94993.30
2018-05-02T11:54:11.888Z,94992.59
2018-05-02T11:56:40.280Z,94975.47
2018-05-02T11:59:07.883Z,94980.88
2018-05-02T12:01:35.366Z,94975.71
2018-05-02T12:04:02.888Z,94968.64
2018-05-02T12:06:30.438Z,94971.92
2018-05-02T12:08:58.000Z,94959.16
2018-05-02T12:11:25.506Z,94950.63
2018-05-02T12:13:53.012Z,94946.13
2018-05-02T12:16:20.516Z,94950.37
2018-05-02T12:18:48.032Z,94954.64
2018-05-02T12:21:15.582Z,94951.17
2018-05-02T12:23:43.963Z,94937.99
2018-05-02T12:26:11.481Z,94937.63
2018-05-02T12:28:39.004Z,94936.23
2018-05-02T12:31:06.517Z,94929.16
2018-05-02T12:33:34.014Z,94918.48
2018-05-02T12:36:01.516Z,94924.26
2018-05-02T12:38:29.058Z,94918.78
2018-05-02T12:40:56.646Z,94928.09
2018-05-02T12:43:24.098Z,94914.34
2018-05-02T12:45:51.611Z,94915.45
2018-05-02T12:48:19.196Z,94879.72
2018-05-02T12:50:46.708Z,94895.16
2018-05-02T12:53:14.214Z,94878.20
2018-05-02T12:55:41.772Z,94882.70
2018-05-02T12:58:09.272Z,94894.20
2018-05-02T13:00:36.792Z,94890.19
2018-05-02T13:03:04.667Z,94891.42
2018-05-02T13:05:32.206Z,94888.94
2018-05-02T13:07:59.712Z,94884.31
2018-05-02T13:10:27.220Z,94879.78
2018-05-02T13:12:54.732Z,94868.41
2018-05-02T13:15:22.294Z,94881.16
2018-05-02T13:17:49.826Z,94878.54
2018-05-02T13:20:17.373Z,94871.58
2018-05-02T13:22:44.878Z,94887.30
2018-05-02T13:25:12.462Z,94885.48
2018-05-02T13:27:39.995Z,94877.77
2018-05-02T13:30:07.539Z,94877.72
2018-05-02T13:32:35.031Z,94872.48
2018-05-02T13:35:02.528Z,94888.65
2018-05-02T13:37:30.028Z,94870.44
2018-05-02T13:39:57.537Z,94877.86
2018-05-02T13:42:25.044Z,94866.06
2018-05-02T13:44:52.562Z,94853.91
2018-05-02T13:47:20.121Z,94847.81
2018-05-02T13:49:47.679Z,94877.94
2018-05-02T13:52:15.199Z,94880.74
2018-05-02T13:54:42.717Z,94869.84
2018-05-02T13:57:10.223Z,94866.26
2018-05-02T13:59:37.736Z,94873.89
2018-05-02T14:02:05.242Z,94886.72
2018-05-02T14:04:32.813Z,94876.75
2018-05-02T14:07:00.315Z,94883.75
2018-05-02T14:09:27.849Z,94873.52
2018-05-02T14:11:55.352Z,94889.92
2018-05-02T14:14:22.863Z,94889.71
2018-05-02T14:16:50.375Z,94886.23
2018-05-02T14:19:17.884Z,94890.25
2018-05-02T14:21:45.415Z,94891.23
2018-05-02T14:24:12.947Z,94915.39
2018-05-02T14:26:40.486Z,94909.13
2018-05-02T14:29:08.052Z,94904.61
2018-05-02T14:31:35.588Z,94911.93
2018-05-02T14:34:03.129Z,94906.84
2018-05-02T14:36:30.627Z,94911.63
2018-05-02T14:38:58.192Z,94922.14
2018-05-02T14:41:25.705Z,94922.93
2018-05-02T14:43:53.198Z,94922.81
2018-05-02T14:46:20.751Z,94937.25
2018-05-02T14:48:48.251Z,94904.36
2018-05-02T14:51:15.772Z,94906.16
2018-05-02T14:53:43.312Z,94912.31
2018-05-02T14:56:10.824Z,94916.06
2018-05-02T14:58:38.326Z,94913.73
2018-05-02T15:01:05.881Z,94911.25
2018-05-02T15:03:33.398Z,94901.33
2018-05-02T15:06:00.934Z,94921.48
2018-05-02T15:08:28.447Z,94904.64
2018-05-02T15:10:56.020Z,94926.63
2018-05-02T15:13:23.522Z,94922.36
2018-05-02T15:15:51.073Z,94927.34
2018-05-02T15:18:18.627Z,94932.39
2018-05-02T15:20:46.188Z,94941.36
2018-05-02T15:23:13.683Z,94951.59
2018-05-02T15:25:41.227Z,94948.17
2018-05-02T15:28:08.759Z,94943.27
2018-05-02T15:30:36.295Z,94947.99
2018-05-02T15:33:03.855Z,94960.44
2018-05-02T15:35:31.366Z,94951.10
2018-05-02T15:37:58.899Z,94954.27
2018-05-02T15:40:26.475Z,94952.16
2018-05-02T15:42:53.992Z,94954.25
2018-05-02T15:45:21.500Z,94959.09
2018-05-02T15:47:49.020Z,94967.56
2018-05-02T15:50:16.562Z,94965.73
2018-05-02T15:52:44.068Z,94969.52
2018-05-02T15:55:11.588Z,94969.62
2018-05-02T15:57:39.122Z,94962.80
2018-05-02T16:00:06.598Z,94967.53
2018-05-02T16:02:34.104Z,94966.05
2018-05-02T16:05:01.657Z,94966.05
2018-05-02T16:07:29.209Z,94966.83
2018-05-02T16:09:56.790Z,94974.42
2018-05-02T16:12:24.251Z,94970.86
2018-05-02T16:14:51.742Z,94968.86
2018-05-02T16:17:19.239Z,94995.08
2018-05-02T16:19:48.294Z,94953.49
2018-05-02T16:22:15.878Z,94984.58
2018-05-02T16:24:43.375Z,94991.10
2018-05-02T16:27:10.870Z,94976.23
2018-05-02T16:29:38.372Z,94969.38
2018-05-02T16:32:05.892Z,94974.53
2018-05-02T16:34:33.398Z,94975.41
2018-05-02T16:37:00.893Z,94979.77
2018-05-02T16:39:28.401Z,94978.77
2018-05-02T16:41:55.916Z,94986.14
2018-05-02T16:44:23.427Z,94991.85
2018-05-02T16:46:51.018Z,94983.64
2018-05-02T16:49:18.528Z,94978.41
2018-05-02T16:51:46.051Z,94976.88
2018-05-02T16:54:13.559Z,94981.06
2018-05-02T16:56:41.088Z,94990.32
2018-05-02T16:59:08.600Z,94976.37
2018-05-02T17:01:36.151Z,94984.63
2018-05-02T17:04:04.031Z,94986.23
2018-05-02T17:06:31.567Z,94981.01
2018-05-02T17:08:59.079Z,94969.92
2018-05-02T17:11:26.581Z,94982.91
2018-05-02T17:13:54.075Z,94977.73
2018-05-02T17:16:21.616Z,94985.86
2018-05-02T17:18:49.149Z,94993.75
2018-05-02T17:21:16.726Z,94983.66
2018-05-02T17:23:44.238Z,94988.81
2018-05-02T17:26:11.743Z,94977.45
2018-05-02T17:28:39.296Z,94982.80
2018-05-02T17:31:06.795Z,94989.47
2018-05-02T17:33:34.331Z,94986.77
2018-05-02T17:36:01.872Z,94987.63
2018-05-02T17:38:29.421Z,94995.62
2018-05-02T17:40:57.001Z,94984.14
2018-05-02T17:43:24.489Z,94985.05
2018-05-02T17:45:52.044Z,94981.13
2018-05-02T17:48:19.590Z,94993.58
2018-05-02T17:50:47.200Z,94990.33
2018-05-02T17:53:14.708Z,94984.80
2018-05-02T17:55:42.994Z,94995.12
2018-05-02T17:58:10.495Z,94989.02
2018-05-02T18:00:38.091Z,94985.28
2018-05-02T18:03:05.591Z,94978.25
2018-05-02T18:05:33.166Z,94991.03
2018-05-02T18:08:00.646Z,94982.03
2018-05-02T18:10:28.217Z,94993.63
2018-05-02T18:12:55.738Z,94998.70
2018-05-02T18:15:23.251Z,94990.64
2018-05-02T18:17:50.750Z,94988.91
2018-05-02T18:20:18.263Z,94999.63
2018-05-02T18:22:45.825Z,94998.73
2018-05-02T18:25:13.340Z,94991.38
2018-05-02T18:27:40.844Z,94990.03
2018-05-02T18:30:08.456Z,95002.28
2018-05-02T18:32:35.964Z,95010.00
2018-05-02T18:35:03.512Z,95020.31
2018-05-02T18:37:31.044Z,95022.66
2018-05-02T18:39:58.601Z,95012.92
2018-05-02T18:42:26.122Z,95019.56
2018-05-02T18:44:54.322Z,95028.36
2018-05-02T18:47:21.829Z,95031.86
2018-05-02T18:49:49.328Z,95028.59
2018-05-02T18:52:16.846Z,95034.12
2018-05-02T18:54:44.349Z,95037.08
2018-05-02T18:57:12.612Z,95030.82
2018-05-02T18:59:40.159Z,95039.57
2018-05-02T19:02:07.663Z,95041.53
2018-05-02T19:04:35.190Z,95041.78
2018-05-02T19:07:02.759Z,95036.61
2018-05-02T19:09:30.273Z,95036.47
2018-05-02T19:11:57.803Z,95044.92
2018-05-02T19:14:25.315Z,95052.52
2018-05-02T19:16:52.814Z,95047.59
2018-05-02T19:19:25.978Z,95045.05
2018-05-02T19:21:53.496Z,95045.27
2018-05-02T19:24:21.000Z,95053.09
2018-05-02T19:26:48.513Z,95048.44
2018-05-02T19:29:16.025Z,95046.86
2018-05-02T19:31:49.097Z,95053.13
2018-05-02T19:34:16.666Z,95056.06
2018-05-02T19:36:44.229Z,95048.88
2018-05-02T19:39:11.754Z,95036.36
2018-05-02T19:41:44.688Z,95048.52
2018-05-02T19:44:12.268Z,95053.57
2018-05-02T19:46:39.771Z,95042.43
2018-05-02T19:49:07.269Z,95029.78
2018-05-02T19:51:40.358Z,95045.57
2018-05-02T19:54:07.863Z,95042.29
2018-05-02T19:56:36.095Z,95044.40
2018-05-02T19:59:03.709Z,95040.30
2018-05-02T20:01:36.770Z,95040.13
2018-05-02T20:04:04.323Z,95033.93
2018-05-02T20:06:31.867Z,95027.92
2018-05-02T20:09:05.054Z,95039.05
2018-05-02T20:11:38.211Z,95040.06
2018-05-02T20:14:06.565Z,95040.46
2018-05-02T20:16:34.073Z,95036.20
2018-05-02T20:19:01.691Z,95034.85
2018-05-02T20:21:29.142Z,95035.28
2018-05-02T20:23:56.635Z,95040.34
2018-05-02T20:26:24.148Z,95035.28
2018-05-02T20:28:51.653Z,95032.73
2018-05-02T20:31:19.319Z,95038.98
2018-05-02T20:33:46.876Z,95020.46
2018-05-02T20:36:14.450Z,95025.13
2018-05-02T20:38:41.974Z,95028.83
2018-05-02T20:41:09.496Z,95034.10
2018-05-02T20:43:37.011Z,95016.34
2018-05-02T20:46:04.571Z,95029.38
2018-05-02T20:48:32.085Z,95026.09
2018-05-02T20:50:59.626Z,95028.63
2018-05-02T20:53:27.132Z,95035.88
2018-05-02T20:55:54.665Z,95016.14
2018-05-02T20:58:22.177Z,95037.99
2018-05-02T21:00:49.722Z,95040.64
2018-05-02T21:03:17.254Z,95039.44
2018-05-02T21:05:44.764Z,95050.38
2018-05-02T21:08:12.284Z,95052.69
2018-05-02T21:10:39.801Z,95054.03
2018-05-02T21:13:07.320Z,95048.57
2018-05-02T21:15:34.831Z,95044.24
2018-05-02T21:18:02.338Z,95060.59
2018-05-02T21:20:29.880Z,95054.31
2018-05-02T21:22:57.414Z,95070.50
2018-05-02T21:25:24.969Z,95066.77
2018-05-02T21:27:52.475Z,95066.62
2018-05-02T21:30:20.059Z,95074.12
2018-05-02T21:32:47.569Z,95071.77
2018-05-02T21:35:15.084Z,95073.30
2018-05-02T21:37:42.594Z,95076.39
2018-05-02T21:40:10.116Z,95078.19
2018-05-02T21:42:37.628Z,95074.38
2018-05-02T21:45:05.179Z,95069.27
2018-05-02T21:47:32.740Z,95074.12
2018-05-02T21:50:00.307Z,95088.14
2018-05-02T21:52:27.892Z,95074.95
2018-05-02T21:54:55.400Z,95079.61
2018-05-02T21:57:22.927Z,95081.33
2018-05-02T21:59:50.452Z,95076.48
2018-05-02T22:02:17.956Z,95077.20
2018-05-02T22:04:46.227Z,95086.16
2018-05-02T22:07:14.044Z,95080.09
2018-05-02T22:09:41.564Z,95074.42
2018-05-02T22:12:09.092Z,95082.45
2018-05-02T22:14:36.599Z,95073.06
2018-05-02T22:17:04.140Z,95076.47
2018-05-02T22:19:31.754Z,95069.79
2018-05-02T22:21:59.246Z,95069.39
2018-05-02T22:24:26.749Z,95066.19
2018-05-02T22:26:54.276Z,95059.92
2018-05-02T22:29:21.791Z,95066.55
2018-05-02T22:31:49.299Z,95066.04
2018-05-02T22:34:16.803Z,95062.86
2018-05-02T22:36:44.371Z,95067.44
2018-05-02T22:39:11.928Z,95064.73
2018-05-02T22:41:39.397Z,95056.09
2018-05-02T22:44:06.931Z,95056.05
2018-05-02T22:46:34.430Z,95057.86
2018-05-02T22:49:01.935Z,95049.86
2018-05-02T22:51:29.470Z,95053.67
2018-05-02T22:53:56.967Z,95052.42
2018-05-02T22:56:24.467Z,95049.91
2018-05-02T22:58:51.984Z,95047.48
2018-05-02T23:01:19.489Z,95037.13
2018-05-02T23:03:47.627Z,95050.83
2018-05-02T23:06:15.122Z,95057.01
2018-05-02T23:08:42.630Z,95053.22
2018-05-02T23:11:10.136Z,95054.83
2018-05-02T23:13:37.775Z,95047.58
2018-05-02T23:16:05.284Z,95053.01
2018-05-02T23:18:32.785Z,95047.58
2018-05-02T23:21:00.305Z,95046.91
2018-05-02T23:23:27.817Z,95040.20
2018-05-02T23:25:55.320Z,95037.34
2018-05-02T23:28:22.823Z,95035.84
2018-05-02T23:30:51.172Z,95032.37
2018-05-02T23:33:18.683Z,95034.98
2018-05-02T23:35:46.197Z,95042.59
2018-05-02T23:38:13.699Z,95038.45
2018-05-02T23:40:41.203Z,95034.03
2018-05-02T23:43:08.713Z,95013.80
2018-05-02T23:45:36.560Z,95033.28
2018-05-02T23:48:04.067Z,95014.41
2018-05-02T23:50:31.567Z,95029.03
2018-05-02T23:52:59.114Z,95027.72
2018-05-02T23:55:26.636Z,95026.13
2018-05-02T23:57:54.147Z,95025.35
